• Join FlightAware (Why Join?)
  • Login
  • US Flag 
07:47AM EDT


 

Airport Tracker/Info


-or-


 

Live Flight TrackerFlight Track Log ✈ CTL18 ✈ 16-Apr-2013 ✈ KYIP - KBKL

Flight Track Log - Related Links

Times and Time Zones

All times are in EDT time to prevent confusion due to time zone crossing. See the CTL18 flight status page for this flight to view local times or setup timezone preferences in your user account.

Time Position Orientation Groundspeed Altitude Reporting Facility
EDT Latitude Longitude Course Direction KTS MPH feet Rate Location/Type
09:19PM 42.2247 -83.5522 228° Southwest 110 127 1,300  Level FAA TRACON SMA TRACON (SMA)
09:19PM 42.2167 -83.5644 228° Southwest 111 128 1,700 1,020 Climbing FAA TRACON SMA TRACON (SMA)
09:19PM 42.2094 -83.5736 223° Southwest 119 137 2,000 1,020 Climbing FAA TRACON SMA TRACON (SMA)
09:20PM 42.2014 -83.5828 220° Southwest 122 140 2,400 1,020 Climbing FAA TRACON SMA TRACON (SMA)
09:20PM 42.1919 -83.5953 224° Southwest 123 142 2,700 720 Climbing FAA TRACON SMA TRACON (SMA)
09:20PM 42.1839 -83.6056 223° Southwest 127 146 2,900 300 Climbing FAA TRACON SMA TRACON (SMA)
09:21PM 42.1742 -83.6169 221° Southwest 162 186 2,900 120 Level FAA TRACON SMA TRACON (SMA)
09:21PM 42.1569 -83.6214 191° South 172 198 3,000  Climbing FAA TRACON SMA TRACON (SMA)
09:21PM 42.1422 -83.6225 183° South 173 199 2,900 -180 Descending FAA TRACON SMA TRACON (SMA)
09:22PM 42.1261 -83.6244 185° South 196 226 2,900  Level FAA TRACON SMA TRACON (SMA)
09:22PM 42.1067 -83.6250 181° South 183 211 2,900  Level FAA TRACON SMA TRACON (SMA)
09:22PM 42.0906 -83.6256 181° South 185 213 2,900  Level FAA TRACON SMA TRACON (SMA)
09:23PM 42.0547 -83.6278 183° South 187 215 2,900  Level FAA TRACON SMA TRACON (SMA)
09:23PM 42.0389 -83.6278 180° South 185 213 2,900  Level FAA TRACON SMA TRACON (SMA)
09:24PM 42.0208 -83.6175 157° South 202 232 2,900  Level FAA TRACON SMA TRACON (SMA)
09:24PM 42.0094 -83.6014 134° Southeast 183 211 2,900 120 Level FAA TRACON SMA TRACON (SMA)
09:24PM 42.0014 -83.5808 118° Southeast 180 207 3,000 120 Climbing FAA TRACON SMA TRACON (SMA)
09:25PM 41.9958 -83.5617 111° Southeast 181 208 3,000 -180 Level FAA TRACON SMA TRACON (SMA)
09:25PM 41.9911 -83.5433 109° East 181 208 2,900 -180 Descending FAA TRACON SMA TRACON (SMA)
09:25PM 41.9847 -83.5189 109° East 183 211 2,900  Level FAA TRACON SMA TRACON (SMA)
09:26PM 41.9797 -83.4992 109° East 182 209 2,900  Level FAA TRACON SMA TRACON (SMA)
09:26PM 41.9736 -83.4756 109° East 178 205 2,900 120 Level FAA TRACON SMA TRACON (SMA)
09:26PM 41.9689 -83.4561 108° East 178 205 3,000 900 Climbing FAA TRACON SMA TRACON (SMA)
09:27PM 41.9633 -83.4347 109° East 163 188 3,500 1,020 Climbing FAA TRACON SMA TRACON (SMA)
09:27PM 41.9594 -83.4186 108° East 151 174 3,700 720 Climbing FAA TRACON SMA TRACON (SMA)
09:27PM 41.9553 -83.4022 109° East 151 174 4,000 900 Climbing FAA TRACON SMA TRACON (SMA)
09:28PM 41.9500 -83.3822 110° East 149 171 4,300 720 Climbing FAA TRACON SMA TRACON (SMA)
09:28PM 41.9456 -83.3661 110° East 150 173 4,500 600 Climbing FAA TRACON SMA TRACON (SMA)
09:28PM 41.9411 -83.3497 110° East 150 173 4,700 600 Climbing FAA TRACON SMA TRACON (SMA)
09:29PM 41.9361 -83.3294 108° East 150 173 4,900 300 Climbing FAA TRACON SMA TRACON (SMA)
09:29PM 41.9322 -83.3125 107° East 155 178 4,900  Level FAA TRACON SMA TRACON (SMA)
09:29PM 41.9275 -83.2939 109° East 172 198 4,900 120 Level FAA TRACON SMA TRACON (SMA)
09:30PM 41.9214 -83.2706 109° East 173 199 5,000 120 Climbing FAA TRACON SMA TRACON (SMA)
09:30PM 41.9161 -83.2525 111° Southeast 171 197 5,000  Level FAA TRACON SMA TRACON (SMA)
09:30PM 41.9108 -83.2339 111° Southeast 174 200 5,000  Level FAA TRACON SMA TRACON (SMA)
09:31PM 41.9042 -83.2100 111° Southeast 175 201 5,000 -180 Level FAA TRACON SMA TRACON (SMA)
09:31PM 41.8992 -83.1906 109° East 178 205 4,900  Descending FAA TRACON SMA TRACON (SMA)
09:31PM 41.8939 -83.1706 110° East 181 208 5,000 120 Climbing FAA TRACON SMA TRACON (SMA)
09:32PM 41.8875 -83.1467 110° East 177 204 5,000  Level FAA TRACON SMA TRACON (SMA)
09:32PM 41.8825 -83.1275 109° East 177 204 5,000  Level FAA TRACON SMA TRACON (SMA)
09:32PM 41.8764 -83.1033 109° East 178 205 5,000  Level FAA TRACON SMA TRACON (SMA)
09:33PM 41.8714 -83.0842 109° East 179 206 5,000 -180 Level FAA TRACON SMA TRACON (SMA)
09:33PM 41.8664 -83.0644 109° East 179 206 4,900 -180 Descending FAA TRACON SMA TRACON (SMA)
09:33PM 41.8600 -83.0397 109° East 182 209 4,900  Level FAA TRACON SMA TRACON (SMA)
09:34PM 41.8544 -83.0206 111° Southeast 180 207 4,900  Level FAA TRACON SMA TRACON (SMA)
09:34PM 41.8492 -83.0011 110° East 181 208 4,900  Level FAA TRACON SMA TRACON (SMA)
09:34PM 41.8439 -82.9819 110° East 179 206 4,900  Level FAA TRACON SMA TRACON (SMA)
09:35PM 41.8381 -82.9575 108° East 179 206 4,900 120 Level FAA TRACON SMA TRACON (SMA)
09:35PM 41.8328 -82.9389 111° Southeast 176 203 5,000 120 Climbing FAA TRACON SMA TRACON (SMA)
09:35PM 41.8281 -82.9197 108° East 177 204 5,000  Level FAA TRACON SMA TRACON (SMA)
09:36PM 41.8217 -82.8956 110° East 177 204 5,000 -180 Level FAA TRACON SMA TRACON (SMA)
09:36PM 41.8167 -82.8764 109° East 177 204 4,900 -180 Descending FAA TRACON SMA TRACON (SMA)
09:36PM 41.8106 -82.8519 109° East 179 206 4,900  Level FAA TRACON SMA TRACON (SMA)
09:37PM 41.8053 -82.8331 111° Southeast 178 205 4,900  Level FAA TRACON SMA TRACON (SMA)
09:37PM 41.8006 -82.8131 108° East 182 209 4,900  Level FAA TRACON SMA TRACON (SMA)
09:37PM 41.7942 -82.7892 110° East 179 206 4,900  Level FAA TRACON SMA TRACON (SMA)
09:38PM 41.7886 -82.7703 112° Southeast 177 204 4,900  Level FAA TRACON SMA TRACON (SMA)
09:38PM 41.7836 -82.7514 110° East 177 204 4,900 120 Level FAA TRACON SMA TRACON (SMA)
09:38PM 41.7772 -82.7275 110° East 176 203 5,000 120 Climbing FAA TRACON SMA TRACON (SMA)
09:39PM 41.7722 -82.7083 109° East 176 203 5,000  Level FAA TRACON SMA TRACON (SMA)
09:39PM 41.7667 -82.6894 112° Southeast 177 204 5,000  Level FAA TRACON SMA TRACON (SMA)
09:39PM 41.7603 -82.6656 110° East 177 204 5,000  Level FAA TRACON SMA TRACON (SMA)
09:40PM 41.7550 -82.6461 110° East 179 206 5,000  Level FAA TRACON SMA TRACON (SMA)
09:40PM 41.7503 -82.6264 108° East 180 207 5,000  Level FAA TRACON SMA TRACON (SMA)
09:40PM 41.7439 -82.6019 109° East 181 208 5,000  Level FAA TRACON SMA TRACON (SMA)
09:41PM 41.7389 -82.5825 109° East 181 208 5,000  Level FAA TRACON SMA TRACON (SMA)
09:41PM 41.7342 -82.5631 108° East 180 207 5,000  Level FAA TRACON SMA TRACON (SMA)
09:41PM 41.7286 -82.5386 107° East 178 205 5,000  Level FAA TRACON SMA TRACON (SMA)
09:42PM 41.7242 -82.5194 107° East 177 204 5,000  Level FAA TRACON SMA TRACON (SMA)
09:42PM 41.7200 -82.5003 106° East 177 204 5,000  Level FAA TRACON SMA TRACON (SMA)
09:42PM 41.7150 -82.4758 105° East 177 204 5,000  Level FAA TRACON SMA TRACON (SMA)
09:43PM 41.7103 -82.4567 108° East 177 204 5,000  Level FAA TRACON SMA TRACON (SMA)
09:43PM 41.7050 -82.4378 111° Southeast 176 203 5,000  Level FAA TRACON SMA TRACON (SMA)
09:43PM 41.6994 -82.4136 107° East 177 204 5,000  Level FAA TRACON SMA TRACON (SMA)
09:44PM 41.6983 -82.4086 107° East 177 204 5,000  Level FAA TRACON SMA TRACON (SMA)
09:44PM 41.6833 -82.3653 115° Southeast 173 199 5,000  Level Cleveland Center
09:45PM 41.6678 -82.3036 109° East 177 204 5,000 -180 Level Cleveland Center
09:46PM 41.6564 -82.2311 102° East 185 213 4,700 -420 Descending Cleveland Center
09:47PM 41.6406 -82.1531 105° East 188 216 4,200 -420 Descending Cleveland Center
09:48PM 41.6292 -82.0861 103° East 185 213 3,900 -420 Descending Cleveland Center
09:49PM 41.6175 -82.0219 104° East 185 213 3,400 -600 Descending Cleveland Center
09:50PM 41.6058 -81.9550 103° East 181 208 2,800 -600 Descending Cleveland Center
09:51PM 41.5939 -81.8908 104° East 178 205 2,200 -420 Descending Cleveland Center
09:52PM 41.5717 -81.8294 116° Southeast 170 196 2,000 -300 Descending Cleveland Center
09:53PM 41.5556 -81.7708 110° East 167 192 1,700 -300 Descending Cleveland Center
09:54PM 41.5436 -81.7122 105° East 151 174 1,400 -300 Descending Cleveland Center
09:55PM 41.5317 -81.6678 110° East 124 143 1,100 -300 Descending Cleveland Center
09:57PM 41.5167 -81.6667 107° East  Level FlightAware Approximate
10:04PM 41.5175 -81.6833 107° East  Level Estimated